Terminal Aerodrome Forecast
Issued by NWS

Home | Current Version | Previous Version | Text Only | Print | Product List | Glossary On
Versions: 1 2 3 4 5 6 7 8 9 10 11 12 13 14 15 16 17 18 19 20 21 22 23 24 25 26 27 28 29 30 31 32 33 34 35 36 37 38 39 40 41 42 43 44 45 46 47 48 49 50
000
FTUS43 KLOT 231142
TAFGYY
TAF
KGYY 231142Z 2312/2412 27007KT P6SM SKC
     FM231230 30007KT P6SM SKC
     FM231500 01010KT P6SM OVC004
     FM231800 02010G17KT P6SM OVC007
     FM232100 03011G17KT P6SM VCSH BKN015 OVC080
      TEMPO 2322/2401 -SHRA
     FM240100 03012G18KT 5SM -SHRA BR OVC008
     FM240400 05012G18KT 3SM SHRA BR OVC005 PROB30 2404/2410 2SM
      TSRA OVC008CB=

USA.gov is the U.S. government's official web portal to all federal, state and local government web resources and services.